sensor_id;sensor_type;location;lat;lon;timestamp;P1;durP1;ratioP1;P2;durP2;ratioP2
43998;SDS011;51319;52.162;5.302;2024-02-04T00:02:02;22.58;;;9.52;;
43998;SDS011;51319;52.162;5.302;2024-02-04T00:04:30;19.40;;;8.77;;
43998;SDS011;51319;52.162;5.302;2024-02-04T00:06:59;19.00;;;7.63;;
43998;SDS011;51319;52.162;5.302;2024-02-04T00:09:26;18.88;;;7.22;;
43998;SDS011;51319;52.162;5.302;2024-02-04T00:11:55;26.00;;;7.63;;
43998;SDS011;51319;52.162;5.302;2024-02-04T00:14:22;29.33;;;10.38;;
43998;SDS011;51319;52.162;5.302;2024-02-04T00:16:49;29.08;;;9.65;;
43998;SDS011;51319;52.162;5.302;2024-02-04T00:19:16;28.23;;;11.68;;
43998;SDS011;51319;52.162;5.302;2024-02-04T00:21:43;42.28;;;11.63;;
43998;SDS011;51319;52.162;5.302;2024-02-04T00:24:10;32.15;;;11.02;;
43998;SDS011;51319;52.162;5.302;2024-02-04T00:26:37;33.47;;;12.27;;
43998;SDS011;51319;52.162;5.302;2024-02-04T00:29:04;29.08;;;11.50;;
43998;SDS011;51319;52.162;5.302;2024-02-04T00:31:31;28.80;;;10.90;;
43998;SDS011;51319;52.162;5.302;2024-02-04T00:33:58;33.03;;;11.43;;
43998;SDS011;51319;52.162;5.302;2024-02-04T00:36:25;31.65;;;12.70;;
43998;SDS011;51319;52.162;5.302;2024-02-04T00:38:52;30.38;;;12.82;;
43998;SDS011;51319;52.162;5.302;2024-02-04T00:41:19;42.03;;;14.00;;
43998;SDS011;51319;52.162;5.302;2024-02-04T00:43:46;42.13;;;15.60;;
43998;SDS011;51319;52.162;5.302;2024-02-04T00:46:13;36.42;;;14.52;;
43998;SDS011;51319;52.162;5.302;2024-02-04T00:48:42;45.33;;;16.83;;
43998;SDS011;51319;52.162;5.302;2024-02-04T00:51:11;45.08;;;16.98;;
43998;SDS011;51319;52.162;5.302;2024-02-04T00:53:39;58.38;;;20.17;;
43998;SDS011;51319;52.162;5.302;2024-02-04T00:56:06;54.80;;;19.88;;
43998;SDS011;51319;52.162;5.302;2024-02-04T00:58:33;61.97;;;20.33;;
43998;SDS011;51319;52.162;5.302;2024-02-04T01:01:00;64.28;;;22.40;;
43998;SDS011;51319;52.162;5.302;2024-02-04T01:03:28;51.75;;;19.52;;
43998;SDS011;51319;52.162;5.302;2024-02-04T01:05:55;56.75;;;20.48;;
43998;SDS011;51319;52.162;5.302;2024-02-04T01:08:23;65.50;;;22.00;;
43998;SDS011;51319;52.162;5.302;2024-02-04T01:10:50;62.20;;;19.38;;
43998;SDS011;51319;52.162;5.302;2024-02-04T01:13:17;62.85;;;20.77;;
43998;SDS011;51319;52.162;5.302;2024-02-04T01:15:44;54.83;;;19.20;;
43998;SDS011;51319;52.162;5.302;2024-02-04T01:18:11;71.43;;;20.05;;
43998;SDS011;51319;52.162;5.302;2024-02-04T01:20:38;53.92;;;19.38;;
43998;SDS011;51319;52.162;5.302;2024-02-04T01:23:05;75.63;;;21.33;;
43998;SDS011;51319;52.162;5.302;2024-02-04T01:25:32;69.78;;;24.20;;
43998;SDS011;51319;52.162;5.302;2024-02-04T01:27:59;69.88;;;21.30;;
43998;SDS011;51319;52.162;5.302;2024-02-04T01:30:26;54.08;;;19.70;;
43998;SDS011;51319;52.162;5.302;2024-02-04T01:32:54;56.55;;;20.55;;
43998;SDS011;51319;52.162;5.302;2024-02-04T01:35:22;52.70;;;17.80;;
43998;SDS011;51319;52.162;5.302;2024-02-04T01:37:49;52.53;;;17.45;;
43998;SDS011;51319;52.162;5.302;2024-02-04T01:40:17;61.38;;;17.63;;
43998;SDS011;51319;52.162;5.302;2024-02-04T01:42:44;57.58;;;17.65;;
43998;SDS011;51319;52.162;5.302;2024-02-04T01:45:11;49.35;;;16.73;;
43998;SDS011;51319;52.162;5.302;2024-02-04T01:47:38;42.13;;;15.77;;
43998;SDS011;51319;52.162;5.302;2024-02-04T01:50:05;43.78;;;17.05;;
43998;SDS011;51319;52.162;5.302;2024-02-04T01:52:33;46.22;;;15.35;;
43998;SDS011;51319;52.162;5.302;2024-02-04T01:55:02;46.13;;;15.77;;
43998;SDS011;51319;52.162;5.302;2024-02-04T01:57:31;49.08;;;15.80;;
43998;SDS011;51319;52.162;5.302;2024-02-04T02:00:02;42.92;;;15.05;;
43998;SDS011;51319;52.162;5.302;2024-02-04T02:02:30;49.15;;;17.15;;
43998;SDS011;51319;52.162;5.302;2024-02-04T02:05:00;52.47;;;16.45;;
43998;SDS011;51319;52.162;5.302;2024-02-04T02:07:27;44.65;;;15.25;;
43998;SDS011;51319;52.162;5.302;2024-02-04T02:09:55;47.88;;;15.52;;
43998;SDS011;51319;52.162;5.302;2024-02-04T02:12:24;36.60;;;13.52;;
43998;SDS011;51319;52.162;5.302;2024-02-04T02:15:14;42.60;;;13.93;;
43998;SDS011;51319;52.162;5.302;2024-02-04T02:17:45;29.00;;;12.20;;
43998;SDS011;51319;52.162;5.302;2024-02-04T02:20:20;36.28;;;12.82;;
43998;SDS011;51319;52.162;5.302;2024-02-04T02:22:57;36.10;;;13.88;;
43998;SDS011;51319;52.162;5.302;2024-02-04T02:25:37;32.65;;;11.35;;
43998;SDS011;51319;52.162;5.302;2024-02-04T02:28:04;33.45;;;11.85;;
43998;SDS011;51319;52.162;5.302;2024-02-04T02:30:32;29.15;;;10.38;;
43998;SDS011;51319;52.162;5.302;2024-02-04T02:32:59;32.03;;;10.73;;
43998;SDS011;51319;52.162;5.302;2024-02-04T02:35:26;33.58;;;10.50;;
43998;SDS011;51319;52.162;5.302;2024-02-04T02:40:40;32.88;;;10.18;;
43998;SDS011;51319;52.162;5.302;2024-02-04T02:43:10;32.33;;;11.00;;
43998;SDS011;51319;52.162;5.302;2024-02-04T02:45:39;32.80;;;9.35;;
43998;SDS011;51319;52.162;5.302;2024-02-04T02:48:09;31.52;;;9.48;;
43998;SDS011;51319;52.162;5.302;2024-02-04T02:50:37;29.33;;;10.77;;
43998;SDS011;51319;52.162;5.302;2024-02-04T02:53:04;21.50;;;8.95;;
43998;SDS011;51319;52.162;5.302;2024-02-04T02:55:31;31.00;;;9.63;;
43998;SDS011;51319;52.162;5.302;2024-02-04T02:57:58;30.23;;;10.10;;
43998;SDS011;51319;52.162;5.302;2024-02-04T03:00:26;37.88;;;12.10;;
43998;SDS011;51319;52.162;5.302;2024-02-04T03:02:53;27.80;;;12.32;;
43998;SDS011;51319;52.162;5.302;2024-02-04T03:05:20;40.38;;;13.20;;
43998;SDS011;51319;52.162;5.302;2024-02-04T03:07:47;43.30;;;15.23;;
43998;SDS011;51319;52.162;5.302;2024-02-04T03:10:15;49.00;;;16.10;;
43998;SDS011;51319;52.162;5.302;2024-02-04T03:12:42;49.08;;;16.05;;
43998;SDS011;51319;52.162;5.302;2024-02-04T03:15:08;55.65;;;17.80;;
43998;SDS011;51319;52.162;5.302;2024-02-04T03:17:35;43.40;;;17.98;;
43998;SDS011;51319;52.162;5.302;2024-02-04T03:20:02;49.22;;;16.33;;
43998;SDS011;51319;52.162;5.302;2024-02-04T03:22:30;44.55;;;16.05;;
43998;SDS011;51319;52.162;5.302;2024-02-04T03:24:57;40.38;;;14.38;;
43998;SDS011;51319;52.162;5.302;2024-02-04T03:27:24;42.22;;;12.95;;
43998;SDS011;51319;52.162;5.302;2024-02-04T03:29:51;28.67;;;11.60;;
43998;SDS011;51319;52.162;5.302;2024-02-04T03:32:17;36.17;;;10.60;;
43998;SDS011;51319;52.162;5.302;2024-02-04T03:34:44;26.13;;;9.70;;
43998;SDS011;51319;52.162;5.302;2024-02-04T03:37:11;34.33;;;7.63;;
43998;SDS011;51319;52.162;5.302;2024-02-04T03:39:39;20.75;;;7.03;;
43998;SDS011;51319;52.162;5.302;2024-02-04T03:42:06;22.50;;;6.68;;
43998;SDS011;51319;52.162;5.302;2024-02-04T03:44:33;30.40;;;5.93;;
43998;SDS011;51319;52.162;5.302;2024-02-04T03:47:00;24.17;;;6.20;;
43998;SDS011;51319;52.162;5.302;2024-02-04T03:49:29;24.05;;;5.60;;
43998;SDS011;51319;52.162;5.302;2024-02-04T03:51:57;13.15;;;4.28;;
43998;SDS011;51319;52.162;5.302;2024-02-04T03:54:23;23.67;;;4.97;;
43998;SDS011;51319;52.162;5.302;2024-02-04T03:56:50;19.75;;;4.15;;
43998;SDS011;51319;52.162;5.302;2024-02-04T03:59:17;15.15;;;3.55;;
43998;SDS011;51319;52.162;5.302;2024-02-04T04:01:50;19.50;;;4.53;;
43998;SDS011;51319;52.162;5.302;2024-02-04T04:04:20;16.77;;;3.80;;
43998;SDS011;51319;52.162;5.302;2024-02-04T04:06:47;15.07;;;3.95;;
43998;SDS011;51319;52.162;5.302;2024-02-04T04:09:15;17.40;;;3.92;;
43998;SDS011;51319;52.162;5.302;2024-02-04T04:11:42;25.58;;;6.13;;
43998;SDS011;51319;52.162;5.302;2024-02-04T04:14:09;23.25;;;5.68;;
43998;SDS011;51319;52.162;5.302;2024-02-04T04:16:36;18.52;;;5.60;;
43998;SDS011;51319;52.162;5.302;2024-02-04T04:19:03;22.98;;;6.57;;
43998;SDS011;51319;52.162;5.302;2024-02-04T04:21:31;23.77;;;6.43;;
43998;SDS011;51319;52.162;5.302;2024-02-04T04:23:57;24.98;;;5.90;;
43998;SDS011;51319;52.162;5.302;2024-02-04T04:26:26;20.88;;;6.15;;
43998;SDS011;51319;52.162;5.302;2024-02-04T04:28:53;24.13;;;6.65;;
43998;SDS011;51319;52.162;5.302;2024-02-04T04:31:20;22.42;;;6.82;;
43998;SDS011;51319;52.162;5.302;2024-02-04T04:33:47;23.70;;;6.43;;
43998;SDS011;51319;52.162;5.302;2024-02-04T04:36:16;34.00;;;8.05;;
43998;SDS011;51319;52.162;5.302;2024-02-04T04:38:43;22.10;;;6.65;;
43998;SDS011;51319;52.162;5.302;2024-02-04T04:41:10;17.23;;;6.93;;
43998;SDS011;51319;52.162;5.302;2024-02-04T04:43:37;21.65;;;6.72;;
43998;SDS011;51319;52.162;5.302;2024-02-04T04:46:04;15.98;;;5.18;;
43998;SDS011;51319;52.162;5.302;2024-02-04T04:48:32;28.88;;;6.35;;
43998;SDS011;51319;52.162;5.302;2024-02-04T04:50:59;20.63;;;5.22;;
43998;SDS011;51319;52.162;5.302;2024-02-04T04:53:26;21.90;;;4.90;;
43998;SDS011;51319;52.162;5.302;2024-02-04T04:55:53;20.70;;;6.05;;
43998;SDS011;51319;52.162;5.302;2024-02-04T04:58:20;26.23;;;5.80;;
43998;SDS011;51319;52.162;5.302;2024-02-04T05:00:47;20.83;;;4.68;;
43998;SDS011;51319;52.162;5.302;2024-02-04T05:03:14;21.65;;;4.82;;
43998;SDS011;51319;52.162;5.302;2024-02-04T05:05:41;20.05;;;5.85;;
43998;SDS011;51319;52.162;5.302;2024-02-04T05:08:08;19.45;;;4.68;;
43998;SDS011;51319;52.162;5.302;2024-02-04T05:10:35;18.38;;;4.32;;
43998;SDS011;51319;52.162;5.302;2024-02-04T05:13:02;20.40;;;4.85;;
43998;SDS011;51319;52.162;5.302;2024-02-04T05:15:30;25.67;;;4.90;;
43998;SDS011;51319;52.162;5.302;2024-02-04T05:17:59;20.20;;;6.15;;
43998;SDS011;51319;52.162;5.302;2024-02-04T05:20:26;16.98;;;4.82;;
43998;SDS011;51319;52.162;5.302;2024-02-04T05:22:55;22.50;;;5.22;;
43998;SDS011;51319;52.162;5.302;2024-02-04T05:25:24;24.95;;;6.32;;
43998;SDS011;51319;52.162;5.302;2024-02-04T05:27:51;22.80;;;6.45;;
43998;SDS011;51319;52.162;5.302;2024-02-04T05:30:18;26.98;;;5.80;;
43998;SDS011;51319;52.162;5.302;2024-02-04T05:32:45;22.58;;;6.28;;
43998;SDS011;51319;52.162;5.302;2024-02-04T05:35:12;22.15;;;6.03;;
43998;SDS011;51319;52.162;5.302;2024-02-04T05:37:40;22.25;;;7.30;;
43998;SDS011;51319;52.162;5.302;2024-02-04T05:40:07;33.38;;;7.72;;
43998;SDS011;51319;52.162;5.302;2024-02-04T05:42:34;23.23;;;7.28;;
43998;SDS011;51319;52.162;5.302;2024-02-04T05:45:03;23.23;;;8.13;;
43998;SDS011;51319;52.162;5.302;2024-02-04T05:47:32;19.48;;;7.55;;
43998;SDS011;51319;52.162;5.302;2024-02-04T05:49:59;21.10;;;7.30;;
43998;SDS011;51319;52.162;5.302;2024-02-04T05:52:26;23.13;;;6.70;;
43998;SDS011;51319;52.162;5.302;2024-02-04T05:54:53;24.48;;;6.93;;
43998;SDS011;51319;52.162;5.302;2024-02-04T05:57:20;18.30;;;6.85;;
43998;SDS011;51319;52.162;5.302;2024-02-04T05:59:47;29.08;;;6.93;;
43998;SDS011;51319;52.162;5.302;2024-02-04T06:02:14;16.38;;;5.80;;
43998;SDS011;51319;52.162;5.302;2024-02-04T06:04:41;23.90;;;6.72;;
43998;SDS011;51319;52.162;5.302;2024-02-04T06:07:08;15.50;;;6.72;;
43998;SDS011;51319;52.162;5.302;2024-02-04T06:09:35;20.65;;;6.22;;
43998;SDS011;51319;52.162;5.302;2024-02-04T06:12:02;23.70;;;6.60;;
43998;SDS011;51319;52.162;5.302;2024-02-04T06:14:33;25.58;;;6.65;;
43998;SDS011;51319;52.162;5.302;2024-02-04T06:17:08;24.88;;;6.97;;
43998;SDS011;51319;52.162;5.302;2024-02-04T06:19:36;21.15;;;7.53;;
43998;SDS011;51319;52.162;5.302;2024-02-04T06:22:06;28.00;;;8.30;;
43998;SDS011;51319;52.162;5.302;2024-02-04T06:24:33;19.88;;;8.32;;
43998;SDS011;51319;52.162;5.302;2024-02-04T06:27:00;25.33;;;8.68;;
43998;SDS011;51319;52.162;5.302;2024-02-04T06:29:27;22.17;;;9.55;;
43998;SDS011;51319;52.162;5.302;2024-02-04T06:31:54;28.98;;;10.55;;
43998;SDS011;51319;52.162;5.302;2024-02-04T06:34:21;22.95;;;10.45;;
43998;SDS011;51319;52.162;5.302;2024-02-04T06:36:48;27.83;;;11.45;;
43998;SDS011;51319;52.162;5.302;2024-02-04T06:39:16;35.55;;;12.70;;
43998;SDS011;51319;52.162;5.302;2024-02-04T06:41:42;33.42;;;15.07;;
43998;SDS011;51319;52.162;5.302;2024-02-04T06:44:11;36.08;;;14.75;;
43998;SDS011;51319;52.162;5.302;2024-02-04T06:46:38;41.30;;;16.38;;
43998;SDS011;51319;52.162;5.302;2024-02-04T06:49:05;42.30;;;17.20;;
43998;SDS011;51319;52.162;5.302;2024-02-04T06:51:32;42.72;;;18.80;;
43998;SDS011;51319;52.162;5.302;2024-02-04T06:53:59;45.20;;;19.17;;
43998;SDS011;51319;52.162;5.302;2024-02-04T06:56:27;41.60;;;18.42;;
43998;SDS011;51319;52.162;5.302;2024-02-04T06:58:54;45.25;;;20.33;;
43998;SDS011;51319;52.162;5.302;2024-02-04T07:01:21;38.42;;;18.60;;
43998;SDS011;51319;52.162;5.302;2024-02-04T07:03:48;38.10;;;17.05;;
43998;SDS011;51319;52.162;5.302;2024-02-04T07:06:16;44.78;;;18.45;;
43998;SDS011;51319;52.162;5.302;2024-02-04T07:08:43;38.10;;;17.33;;
43998;SDS011;51319;52.162;5.302;2024-02-04T07:11:10;39.78;;;16.88;;
43998;SDS011;51319;52.162;5.302;2024-02-04T07:13:37;43.45;;;18.95;;
43998;SDS011;51319;52.162;5.302;2024-02-04T07:16:04;34.42;;;15.65;;
43998;SDS011;51319;52.162;5.302;2024-02-04T07:18:32;35.67;;;16.00;;
43998;SDS011;51319;52.162;5.302;2024-02-04T07:20:59;46.67;;;16.73;;
43998;SDS011;51319;52.162;5.302;2024-02-04T07:23:26;33.85;;;15.32;;
43998;SDS011;51319;52.162;5.302;2024-02-04T07:25:53;30.38;;;15.07;;
43998;SDS011;51319;52.162;5.302;2024-02-04T07:28:20;42.83;;;13.50;;
43998;SDS011;51319;52.162;5.302;2024-02-04T07:30:47;37.47;;;14.68;;
43998;SDS011;51319;52.162;5.302;2024-02-04T07:33:14;32.30;;;13.77;;
43998;SDS011;51319;52.162;5.302;2024-02-04T07:35:41;35.90;;;14.63;;
43998;SDS011;51319;52.162;5.302;2024-02-04T07:38:08;32.53;;;12.93;;
43998;SDS011;51319;52.162;5.302;2024-02-04T07:40:35;33.08;;;13.05;;
43998;SDS011;51319;52.162;5.302;2024-02-04T07:43:02;30.73;;;12.70;;
43998;SDS011;51319;52.162;5.302;2024-02-04T07:45:29;33.33;;;12.07;;
43998;SDS011;51319;52.162;5.302;2024-02-04T07:47:56;22.75;;;11.45;;
43998;SDS011;51319;52.162;5.302;2024-02-04T07:50:23;25.45;;;11.05;;
43998;SDS011;51319;52.162;5.302;2024-02-04T07:52:51;23.25;;;10.98;;
43998;SDS011;51319;52.162;5.302;2024-02-04T07:55:18;20.30;;;9.25;;
43998;SDS011;51319;52.162;5.302;2024-02-04T07:57:45;21.33;;;9.50;;
43998;SDS011;51319;52.162;5.302;2024-02-04T08:00:12;25.15;;;9.85;;
43998;SDS011;51319;52.162;5.302;2024-02-04T08:02:40;21.05;;;8.23;;
43998;SDS011;51319;52.162;5.302;2024-02-04T08:05:07;19.55;;;7.40;;
43998;SDS011;51319;52.162;5.302;2024-02-04T08:07:34;15.73;;;6.32;;
43998;SDS011;51319;52.162;5.302;2024-02-04T08:10:01;14.32;;;5.95;;
43998;SDS011;51319;52.162;5.302;2024-02-04T08:12:29;10.65;;;5.18;;
43998;SDS011;51319;52.162;5.302;2024-02-04T08:14:56;13.50;;;4.68;;
43998;SDS011;51319;52.162;5.302;2024-02-04T08:17:22;13.13;;;3.40;;
43998;SDS011;51319;52.162;5.302;2024-02-04T08:19:50;9.77;;;3.35;;
43998;SDS011;51319;52.162;5.302;2024-02-04T08:22:17;6.47;;;3.05;;
43998;SDS011;51319;52.162;5.302;2024-02-04T08:24:46;5.43;;;2.58;;
43998;SDS011;51319;52.162;5.302;2024-02-04T08:27:13;5.10;;;2.85;;
43998;SDS011;51319;52.162;5.302;2024-02-04T08:29:42;9.82;;;3.63;;
43998;SDS011;51319;52.162;5.302;2024-02-04T08:32:09;9.73;;;3.70;;
43998;SDS011;51319;52.162;5.302;2024-02-04T08:34:36;8.02;;;2.88;;
43998;SDS011;51319;52.162;5.302;2024-02-04T08:37:06;13.48;;;3.53;;
43998;SDS011;51319;52.162;5.302;2024-02-04T08:39:33;11.07;;;3.20;;
43998;SDS011;51319;52.162;5.302;2024-02-04T08:42:00;11.45;;;4.13;;
43998;SDS011;51319;52.162;5.302;2024-02-04T08:44:27;11.77;;;4.25;;
43998;SDS011;51319;52.162;5.302;2024-02-04T08:47:05;12.48;;;4.47;;
43998;SDS011;51319;52.162;5.302;2024-02-04T08:49:32;17.02;;;4.95;;
43998;SDS011;51319;52.162;5.302;2024-02-04T08:51:59;14.50;;;5.47;;
43998;SDS011;51319;52.162;5.302;2024-02-04T08:54:26;18.02;;;6.38;;
43998;SDS011;51319;52.162;5.302;2024-02-04T08:56:53;15.45;;;5.63;;
43998;SDS011;51319;52.162;5.302;2024-02-04T08:59:20;26.02;;;9.10;;
43998;SDS011;51319;52.162;5.302;2024-02-04T09:01:47;18.27;;;6.65;;
43998;SDS011;51319;52.162;5.302;2024-02-04T09:04:14;15.43;;;6.00;;
43998;SDS011;51319;52.162;5.302;2024-02-04T09:06:41;17.83;;;6.05;;
43998;SDS011;51319;52.162;5.302;2024-02-04T09:09:08;12.88;;;5.55;;
43998;SDS011;51319;52.162;5.302;2024-02-04T09:11:35;17.70;;;5.85;;
43998;SDS011;51319;52.162;5.302;2024-02-04T09:14:02;13.35;;;4.95;;
43998;SDS011;51319;52.162;5.302;2024-02-04T09:16:30;16.30;;;5.60;;
43998;SDS011;51319;52.162;5.302;2024-02-04T09:18:57;7.97;;;4.32;;
43998;SDS011;51319;52.162;5.302;2024-02-04T09:21:24;10.90;;;4.80;;
43998;SDS011;51319;52.162;5.302;2024-02-04T09:23:52;14.10;;;4.00;;
43998;SDS011;51319;52.162;5.302;2024-02-04T09:26:19;12.30;;;3.75;;
43998;SDS011;51319;52.162;5.302;2024-02-04T09:28:47;7.40;;;3.35;;
43998;SDS011;51319;52.162;5.302;2024-02-04T09:31:14;10.90;;;3.17;;
43998;SDS011;51319;52.162;5.302;2024-02-04T09:33:41;10.40;;;2.95;;
43998;SDS011;51319;52.162;5.302;2024-02-04T09:36:08;8.43;;;2.88;;
43998;SDS011;51319;52.162;5.302;2024-02-04T09:38:36;8.63;;;2.60;;
43998;SDS011;51319;52.162;5.302;2024-02-04T09:41:03;9.95;;;3.00;;
43998;SDS011;51319;52.162;5.302;2024-02-04T09:43:33;9.90;;;2.55;;
43998;SDS011;51319;52.162;5.302;2024-02-04T09:46:03;11.23;;;2.33;;
43998;SDS011;51319;52.162;5.302;2024-02-04T09:48:31;6.20;;;2.33;;
43998;SDS011;51319;52.162;5.302;2024-02-04T09:51:00;8.45;;;2.50;;
43998;SDS011;51319;52.162;5.302;2024-02-04T09:53:34;11.18;;;3.80;;
43998;SDS011;51319;52.162;5.302;2024-02-04T09:56:02;7.82;;;2.40;;
43998;SDS011;51319;52.162;5.302;2024-02-04T09:58:32;8.20;;;3.45;;
43998;SDS011;51319;52.162;5.302;2024-02-04T10:01:00;6.97;;;2.30;;
43998;SDS011;51319;52.162;5.302;2024-02-04T10:03:27;3.38;;;1.92;;
43998;SDS011;51319;52.162;5.302;2024-02-04T10:05:55;12.95;;;3.00;;
43998;SDS011;51319;52.162;5.302;2024-02-04T10:08:22;45.25;;;18.15;;
43998;SDS011;51319;52.162;5.302;2024-02-04T10:10:50;11.55;;;5.07;;
43998;SDS011;51319;52.162;5.302;2024-02-04T10:13:17;6.20;;;1.65;;
43998;SDS011;51319;52.162;5.302;2024-02-04T10:15:44;23.25;;;10.38;;
43998;SDS011;51319;52.162;5.302;2024-02-04T10:18:11;7.90;;;2.47;;
43998;SDS011;51319;52.162;5.302;2024-02-04T10:20:38;6.20;;;1.90;;
43998;SDS011;51319;52.162;5.302;2024-02-04T10:23:05;5.13;;;1.88;;
43998;SDS011;51319;52.162;5.302;2024-02-04T10:25:32;4.82;;;1.30;;
43998;SDS011;51319;52.162;5.302;2024-02-04T10:27:59;6.32;;;1.65;;
43998;SDS011;51319;52.162;5.302;2024-02-04T10:30:26;6.82;;;1.35;;
43998;SDS011;51319;52.162;5.302;2024-02-04T10:32:54;4.85;;;1.33;;
43998;SDS011;51319;52.162;5.302;2024-02-04T10:35:21;6.30;;;1.10;;
43998;SDS011;51319;52.162;5.302;2024-02-04T10:37:50;5.80;;;1.05;;
43998;SDS011;51319;52.162;5.302;2024-02-04T10:40:18;2.20;;;1.00;;
43998;SDS011;51319;52.162;5.302;2024-02-04T10:42:46;5.45;;;1.42;;
43998;SDS011;51319;52.162;5.302;2024-02-04T10:45:13;3.65;;;1.13;;
43998;SDS011;51319;52.162;5.302;2024-02-04T10:47:44;6.45;;;1.10;;
43998;SDS011;51319;52.162;5.302;2024-02-04T10:50:20;3.13;;;0.70;;
43998;SDS011;51319;52.162;5.302;2024-02-04T10:52:49;2.78;;;1.02;;
43998;SDS011;51319;52.162;5.302;2024-02-04T10:55:17;2.17;;;0.73;;
43998;SDS011;51319;52.162;5.302;2024-02-04T10:57:51;3.88;;;0.90;;
43998;SDS011;51319;52.162;5.302;2024-02-04T11:00:18;3.33;;;1.08;;
43998;SDS011;51319;52.162;5.302;2024-02-04T11:02:47;1.85;;;0.90;;
43998;SDS011;51319;52.162;5.302;2024-02-04T11:05:15;3.13;;;1.20;;
43998;SDS011;51319;52.162;5.302;2024-02-04T11:07:44;6.70;;;1.55;;
43998;SDS011;51319;52.162;5.302;2024-02-04T11:10:11;2.53;;;1.15;;
43998;SDS011;51319;52.162;5.302;2024-02-04T11:12:39;5.32;;;1.20;;
43998;SDS011;51319;52.162;5.302;2024-02-04T11:15:09;6.85;;;1.75;;
43998;SDS011;51319;52.162;5.302;2024-02-04T11:25:38;5.47;;;1.55;;
43998;SDS011;51319;52.162;5.302;2024-02-04T11:28:10;8.18;;;2.15;;
43998;SDS011;51319;52.162;5.302;2024-02-04T11:30:38;8.88;;;1.75;;
43998;SDS011;51319;52.162;5.302;2024-02-04T11:33:06;6.22;;;2.05;;
43998;SDS011;51319;52.162;5.302;2024-02-04T11:35:33;4.53;;;1.95;;
43998;SDS011;51319;52.162;5.302;2024-02-04T11:38:05;5.88;;;2.60;;
43998;SDS011;51319;52.162;5.302;2024-02-04T11:40:36;7.45;;;2.75;;
43998;SDS011;51319;52.162;5.302;2024-02-04T11:43:09;11.75;;;3.25;;
43998;SDS011;51319;52.162;5.302;2024-02-04T11:45:37;14.82;;;3.42;;
43998;SDS011;51319;52.162;5.302;2024-02-04T11:48:09;12.30;;;2.92;;
43998;SDS011;51319;52.162;5.302;2024-02-04T11:50:38;12.70;;;2.65;;
43998;SDS011;51319;52.162;5.302;2024-02-04T11:55:35;10.77;;;2.65;;
43998;SDS011;51319;52.162;5.302;2024-02-04T11:58:11;10.10;;;2.85;;
43998;SDS011;51319;52.162;5.302;2024-02-04T12:00:41;8.95;;;3.00;;
43998;SDS011;51319;52.162;5.302;2024-02-04T12:03:11;16.27;;;3.17;;
43998;SDS011;51319;52.162;5.302;2024-02-04T12:05:38;17.00;;;3.67;;
43998;SDS011;51319;52.162;5.302;2024-02-04T12:08:06;13.68;;;3.05;;
43998;SDS011;51319;52.162;5.302;2024-02-04T12:10:36;10.98;;;3.00;;
43998;SDS011;51319;52.162;5.302;2024-02-04T12:13:05;16.20;;;2.85;;
43998;SDS011;51319;52.162;5.302;2024-02-04T12:15:36;12.85;;;3.28;;
43998;SDS011;51319;52.162;5.302;2024-02-04T12:18:06;12.63;;;2.70;;
43998;SDS011;51319;52.162;5.302;2024-02-04T12:20:37;10.80;;;2.33;;
43998;SDS011;51319;52.162;5.302;2024-02-04T12:23:05;10.75;;;1.95;;
43998;SDS011;51319;52.162;5.302;2024-02-04T12:25:33;9.13;;;2.15;;
43998;SDS011;51319;52.162;5.302;2024-02-04T12:28:02;11.00;;;2.28;;
43998;SDS011;51319;52.162;5.302;2024-02-04T12:30:31;6.82;;;2.00;;
43998;SDS011;51319;52.162;5.302;2024-02-04T12:32:59;9.20;;;2.20;;
43998;SDS011;51319;52.162;5.302;2024-02-04T12:35:33;8.27;;;1.90;;
43998;SDS011;51319;52.162;5.302;2024-02-04T12:37:59;8.25;;;2.45;;
43998;SDS011;51319;52.162;5.302;2024-02-04T12:40:27;16.05;;;2.22;;
43998;SDS011;51319;52.162;5.302;2024-02-04T12:42:55;8.13;;;2.22;;
43998;SDS011;51319;52.162;5.302;2024-02-04T12:45:28;7.38;;;2.00;;
43998;SDS011;51319;52.162;5.302;2024-02-04T12:47:56;6.13;;;1.98;;
43998;SDS011;51319;52.162;5.302;2024-02-04T12:50:25;11.98;;;1.95;;
43998;SDS011;51319;52.162;5.302;2024-02-04T12:55:33;11.93;;;2.15;;
43998;SDS011;51319;52.162;5.302;2024-02-04T12:58:02;10.82;;;1.80;;
43998;SDS011;51319;52.162;5.302;2024-02-04T13:00:33;10.13;;;1.90;;
43998;SDS011;51319;52.162;5.302;2024-02-04T13:03:04;9.73;;;2.05;;
43998;SDS011;51319;52.162;5.302;2024-02-04T13:05:32;11.27;;;2.60;;
43998;SDS011;51319;52.162;5.302;2024-02-04T13:08:00;6.68;;;2.03;;
43998;SDS011;51319;52.162;5.302;2024-02-04T13:10:30;11.32;;;2.33;;
43998;SDS011;51319;52.162;5.302;2024-02-04T13:13:01;10.68;;;1.75;;
43998;SDS011;51319;52.162;5.302;2024-02-04T13:15:30;12.63;;;2.20;;
43998;SDS011;51319;52.162;5.302;2024-02-04T13:17:58;5.97;;;1.90;;
43998;SDS011;51319;52.162;5.302;2024-02-04T13:20:26;11.38;;;3.05;;
43998;SDS011;51319;52.162;5.302;2024-02-04T13:22:57;7.72;;;1.95;;
43998;SDS011;51319;52.162;5.302;2024-02-04T13:25:26;8.60;;;2.22;;
43998;SDS011;51319;52.162;5.302;2024-02-04T13:27:53;12.05;;;1.83;;
43998;SDS011;51319;52.162;5.302;2024-02-04T13:30:21;5.82;;;2.25;;
43998;SDS011;51319;52.162;5.302;2024-02-04T13:32:48;8.60;;;2.22;;
43998;SDS011;51319;52.162;5.302;2024-02-04T13:35:15;9.52;;;2.25;;
43998;SDS011;51319;52.162;5.302;2024-02-04T13:37:46;7.90;;;2.13;;
43998;SDS011;51319;52.162;5.302;2024-02-04T13:40:18;6.63;;;2.28;;
43998;SDS011;51319;52.162;5.302;2024-02-04T13:42:46;11.13;;;2.55;;
43998;SDS011;51319;52.162;5.302;2024-02-04T13:45:13;6.75;;;1.75;;
43998;SDS011;51319;52.162;5.302;2024-02-04T13:47:41;7.55;;;1.75;;
43998;SDS011;51319;52.162;5.302;2024-02-04T13:50:12;7.97;;;1.92;;
43998;SDS011;51319;52.162;5.302;2024-02-04T13:52:40;9.77;;;2.95;;
43998;SDS011;51319;52.162;5.302;2024-02-04T13:55:07;7.78;;;1.73;;
43998;SDS011;51319;52.162;5.302;2024-02-04T13:57:35;15.85;;;1.92;;
43998;SDS011;51319;52.162;5.302;2024-02-04T14:00:02;8.07;;;1.88;;
43998;SDS011;51319;52.162;5.302;2024-02-04T14:02:32;10.27;;;2.42;;
43998;SDS011;51319;52.162;5.302;2024-02-04T14:04:59;12.07;;;2.75;;
43998;SDS011;51319;52.162;5.302;2024-02-04T14:07:27;10.15;;;2.25;;
43998;SDS011;51319;52.162;5.302;2024-02-04T14:09:55;8.00;;;2.03;;
43998;SDS011;51319;52.162;5.302;2024-02-04T14:12:22;7.05;;;2.40;;
43998;SDS011;51319;52.162;5.302;2024-02-04T14:14:50;66.75;;;27.00;;
43998;SDS011;51319;52.162;5.302;2024-02-04T14:17:17;14.45;;;3.47;;
43998;SDS011;51319;52.162;5.302;2024-02-04T14:19:44;16.70;;;3.78;;
43998;SDS011;51319;52.162;5.302;2024-02-04T14:22:15;19.15;;;4.57;;
43998;SDS011;51319;52.162;5.302;2024-02-04T14:24:46;23.17;;;5.88;;
43998;SDS011;51319;52.162;5.302;2024-02-04T14:27:13;17.38;;;4.68;;
43998;SDS011;51319;52.162;5.302;2024-02-04T14:29:40;23.92;;;7.65;;
43998;SDS011;51319;52.162;5.302;2024-02-04T14:32:08;28.15;;;7.07;;
43998;SDS011;51319;52.162;5.302;2024-02-04T14:34:35;16.77;;;5.20;;
43998;SDS011;51319;52.162;5.302;2024-02-04T14:37:02;20.27;;;4.85;;
43998;SDS011;51319;52.162;5.302;2024-02-04T14:39:35;17.27;;;3.80;;
43998;SDS011;51319;52.162;5.302;2024-02-04T14:42:02;15.38;;;4.00;;
43998;SDS011;51319;52.162;5.302;2024-02-04T14:44:29;15.07;;;4.00;;
43998;SDS011;51319;52.162;5.302;2024-02-04T14:46:56;20.33;;;3.88;;
43998;SDS011;51319;52.162;5.302;2024-02-04T14:49:23;17.63;;;5.45;;
43998;SDS011;51319;52.162;5.302;2024-02-04T14:51:51;10.70;;;3.03;;
43998;SDS011;51319;52.162;5.302;2024-02-04T14:54:18;13.10;;;3.47;;